Glidden, Texas
Current Conditions -  °F | °C
As of 8:55 AM on Sunday 21 Dec 2014 (Local Time) from K66R Reporting Station
Overcast Overcast  
Wind Chill: 51°   Ceiling: 1900
Heat Index: 51°   Visibility: 7mi
Dew Point: 49°   Wind: 0mph
Humidity: 91%   Direction: NA
Pressure: 30.11"   Gusts: NA
Location:  29.7°N, 96.59°W
Report Text: K66R 211455Z AUTO 00000KT 7SM SCT006 OVC019 11/09 A3011 RMK AO2 T01060092
Loading
Personal Weather Stations






























Interactive Weather Map New forecast layout! Learn more

10-Day Weather Forecast

Advertisements
Track Severe Weather on mobile